Frank Wiley Field Miles City US
ICAO: KMLS
IATA: MLS
Category: Medium
Scheduled Services: Yes

Elevation: 2630 ft
TransAlt. 18000 ft.

Airport Communications:
ASOS:135.575
GREAT FALLS RDO:122.2
CTAF/UNICOM:123

KMLS Zoom In..

Runways:

(A) RW 04 length 5680 ft width 75 ft
---- / hdg 40

(B) RW 12 length 5628 ft width 100 ft
---- / hdg 123

(C) RW 22 length 5680 ft width 75 ft
---- / hdg 220

(D) RW 30 length 5628 ft width 100 ft
---- / hdg 303

Location; KMLS
Day. 04 / Time. 12.53 Zulu
* Altimeter: 30.13
* Temperature: -03° c. -26.6°f.
* Wind from: 240° Speed 06 kn.
Dewpoint: -10° c.
Visibility: 10 Statute Miles.
Clouds: Clear (automated report).

KMLS 041253Z AUTO 24006KT 10SM CLR M03/M10 A3013 RMK AO2 SLP231 T10331100 $

Going to: --> -->


Wind From 240°
Speed 06 kn.

 
 
jpsmedia worldairports.se 2020   terms of use